This is the latest recevied weather packets stored in our database for station/object SQ2CET-13. If no packets are shown the sender has not sent any weather packets the latest 10 day(s).
| Time | Temp. | Humidity | Pressure | Rain* | Wind** | Luminosity | Snow |
|---|---|---|---|---|---|---|---|
| 1777340431 | -1.11° C | 89% | 1026.9 hPa | 0 mm | - | 0 W/m² | - |
| 1777330254 | 0.56° C | 84% | 1026.8 hPa | 0 mm | - | 0 W/m² | - |
| 1777328463 | 0.56° C | 85% | 1026.7 hPa | 0 mm | - | 0 W/m² | - |
| 1777327822 | 0.56° C | 85% | 1026.7 hPa | 0 mm | - | 0 W/m² | - |
| 1777326031 | 1.67° C | 85% | 1026.7 hPa | 0 mm | - | 0 W/m² | - |
| 1777325454 | 1.67° C | 84% | 1026.6 hPa | 0 mm | - | 0 W/m² | - |
| 1777324239 | 1.67° C | 82% | 1026.6 hPa | 0 mm | - | 0 W/m² | - |
| 1777321871 | 2.22° C | 79% | 1026.5 hPa | 0 mm | - | 0 W/m² | - |
| 1777319438 | 3.33° C | 78% | 1026.5 hPa | 0 mm | - | 0 W/m² | - |
| 1777312868 | 5.56° C | 60% | 1025.7 hPa | 0 mm | - | 9 W/m² | - |
| 1777311055 | 6.67° C | 56% | 1025.7 hPa | 0 mm | - | 29 W/m² | - |
| 1777307470 | 8.33° C | 48% | 1025.3 hPa | 0 mm | - | 91 W/m² | - |
| 1777305698 | 8.89° C | 46% | 1025.3 hPa | 0 mm | - | 111 W/m² | - |
| 1777302670 | 7.78° C | 47% | 1025.3 hPa | 0 mm | - | 254 W/m² | - |
| 1777302051 | 8.89° C | 47% | 1025.2 hPa | 0 mm | - | 267 W/m² | - |
| 1777292464 | 9.44° C | 40% | 1025 hPa | 0 mm | - | 511 W/m² | - |
| 1777290672 | 10.56° C | 40% | 1024.8 hPa | 0 mm | - | 525 W/m² | - |
| 1777285279 | 10° C | 43% | 1024.4 hPa | 0 mm | - | 616 W/m² | - |
| 1777284639 | 9.44° C | 43% | 1024.4 hPa | 0 mm | - | 644 W/m² | - |
| 1777283424 | 10° C | 43% | 1024.3 hPa | 0 mm | - | 661 W/m² | - |
| 1777281047 | 10° C | 45% | 1024.2 hPa | 0 mm | - | 677 W/m² | - |
| 1777278041 | 8.89° C | 46% | 1024.1 hPa | 0 mm | - | 627 W/m² | - |
| 1777276823 | 8.33° C | 47% | 1024.1 hPa | 0 mm | - | 596 W/m² | - |
| 1777272023 | 7.22° C | 66% | 1023.8 hPa | 0 mm | - | 336 W/m² | - |
| 1777270893 | 6.67° C | 71% | 1023.6 hPa | 0 mm | - | 288 W/m² | - |
* Rain latest hour (hover to see other rain measurements)
** Current wind speed in m/s (hover to see current wind gust speed)